Time;durP1;ratioP1;P1;durP2;ratioP2;P2;SDS_P1;SDS_P2;PMS_P1;PMS_P2;Temp;Humidity;BMP_temperature;BMP_pressure;BME280_temperature;BME280_humidity;BME280_pressure;Samples;Min_cycle;Max_cycle;Signal;HPM_P1;HPM_P2
2023/03/28 00:00:05;;;;;;;;;6.17;5.83;;;;;9.26;46.17;102603.22;2020900;28;2730475;-76
2023/03/28 00:01:18;;;;;;;;;8.83;6.50;;;;;9.22;46.36;102603.19;2043929;28;2731523;-76
2023/03/28 00:02:31;;;;;;;;;8.50;5.33;;;;;9.20;46.04;102604.94;2019484;28;2735781;-76
2023/03/28 00:03:45;;;;;;;;;9.17;6.33;;;;;9.20;46.07;102604.94;2041742;28;2753374;-75
2023/03/28 00:04:58;;;;;;;;;9.33;6.00;;;;;9.18;46.08;102606.69;2043922;28;2741955;-76
2023/03/28 00:06:17;;;;;;;;;8.33;6.00;;;;;9.19;46.11;102610.16;2044331;28;2732549;-76
2023/03/28 00:07:28;;;;;;;;;8.00;7.00;;;;;9.17;46.25;102607.56;2017979;28;2736063;-76
2023/03/28 00:08:41;;;;;;;;;6.00;5.67;;;;;9.16;46.38;102605.78;2045681;28;2745100;-76
2023/03/28 00:09:56;;;;;;;;;7.83;6.17;;;;;9.16;46.63;102603.16;2044349;28;2749719;-76
2023/03/28 00:11:17;;;;;;;;;6.33;6.00;;;;;9.15;46.27;102603.19;2045288;28;2738137;-76
2023/03/28 00:12:30;;;;;;;;;8.00;6.67;;;;;9.14;46.27;102599.66;2044929;28;2757045;-75
2023/03/28 00:13:56;;;;;;;;;4.17;2.17;;;;;9.14;46.68;102602.28;2046354;28;2739844;-76
2023/03/28 00:15:10;;;;;;;;;7.50;6.33;;;;;9.12;46.42;102601.41;2044393;28;2737162;-76
2023/03/28 00:16:24;;;;;;;;;8.67;6.50;;;;;9.12;46.15;102601.41;2045713;28;2739841;-76
2023/03/28 00:17:34;;;;;;;;;8.67;7.33;;;;;9.11;46.75;102599.69;2016300;28;2738905;-75
2023/03/28 00:18:46;;;;;;;;;4.33;3.33;;;;;9.10;46.44;102603.16;2024045;28;2752903;-75
2023/03/28 00:20:01;;;;;;;;;4.80;4.80;;;;;9.08;46.70;102607.53;2045943;28;2741940;-76
2023/03/28 00:21:22;;;;;;;;;8.67;5.17;;;;;9.06;46.47;102607.50;2022435;28;2744034;-76
2023/03/28 00:22:37;;;;;;;;;6.67;5.50;;;;;9.05;46.54;102611.03;2021809;28;2742969;-76
2023/03/28 00:23:53;;;;;;;;;6.50;5.00;;;;;9.05;46.41;102604.88;2045504;28;2748230;-76
2023/03/28 00:25:07;;;;;;;;;5.17;4.00;;;;;9.03;46.36;102609.25;2045162;28;2750265;-75
2023/03/28 00:26:23;;;;;;;;;5.67;5.67;;;;;9.04;46.43;102611.03;2019665;28;2735730;-76
2023/03/28 00:27:36;;;;;;;;;4.50;4.00;;;;;9.02;46.11;102610.13;2045965;28;2750781;-76
2023/03/28 00:28:52;;;;;;;;;6.00;5.00;;;;;9.00;46.27;102613.63;2044769;28;2746087;-76
2023/03/28 00:30:06;;;;;;;;;4.50;4.50;;;;;8.99;45.81;102611.88;2044965;28;2738799;-75
2023/03/28 00:31:21;;;;;;;;;4.83;4.83;;;;;8.99;46.08;102605.72;2036989;28;2748198;-76
2023/03/28 00:32:35;;;;;;;;;6.67;5.00;;;;;8.97;46.19;102605.75;2042564;28;2746094;-75
2023/03/28 00:33:48;;;;;;;;;8.50;4.00;;;;;8.96;45.74;102608.38;2044852;28;2746170;-75
2023/03/28 00:35:01;;;;;;;;;4.83;3.83;;;;;8.95;46.55;102599.63;2044339;28;2738838;-75
2023/03/28 00:36:25;;;;;;;;;4.00;3.17;;;;;8.94;46.39;102603.09;2045293;28;2739833;-76
2023/03/28 00:37:35;;;;;;;;;5.00;5.00;;;;;8.93;46.66;102601.34;2018519;28;2746114;-75
2023/03/28 00:38:46;;;;;;;;;5.33;4.33;;;;;8.92;46.22;102604.84;2043624;28;2746102;-75
2023/03/28 00:40:00;;;;;;;;;4.50;3.33;;;;;8.91;45.92;102605.72;2060944;27;2750291;-75
2023/03/28 00:41:14;;;;;;;;;4.17;4.17;;;;;8.91;46.29;102597.84;2045830;28;2736719;-76
2023/03/28 00:42:28;;;;;;;;;5.33;5.17;;;;;8.90;46.73;102596.09;2042585;28;2742970;-75
2023/03/28 00:43:43;;;;;;;;;6.50;5.00;;;;;8.90;46.46;102596.09;2045338;28;2747179;-76
2023/03/28 00:44:57;;;;;;;;;5.50;3.00;;;;;8.88;46.25;102601.34;2044647;28;2754420;-75
2023/03/28 00:46:38;;;;;;;;;5.33;4.00;;;;;8.88;46.33;102601.34;2047691;28;2750300;-75
2023/03/28 00:48:00;;;;;;;;;8.00;4.83;;;;;8.86;46.44;102600.47;2023088;28;2750284;-76
2023/03/28 00:49:22;;;;;;;;;5.83;4.67;;;;;8.86;46.29;102604.81;2049209;28;2742966;-75
2023/03/28 00:50:40;;;;;;;;;5.67;5.67;;;;;8.85;46.79;102605.69;2045398;28;2741923;-76
2023/03/28 00:52:01;;;;;;;;;6.17;5.67;;;;;8.85;46.70;102605.69;2044961;28;2732656;-76
2023/03/28 00:53:25;;;;;;;;;8.67;5.17;;;;;8.83;46.55;102599.56;2044904;28;2746460;-76
2023/03/28 00:54:39;;;;;;;;;4.83;3.83;;;;;8.83;46.71;102602.19;2038455;28;2740883;-76
2023/03/28 00:55:57;;;;;;;;;6.33;4.83;;;;;8.81;46.59;102596.06;2042734;28;2735685;-75
2023/03/28 00:57:15;;;;;;;;;5.33;5.00;;;;;8.80;46.86;102602.16;2044788;28;2748202;-76
2023/03/28 00:58:32;;;;;;;;;8.00;6.17;;;;;8.76;46.66;102599.53;2022307;28;2725309;-76
2023/03/28 00:59:45;;;;;;;;;9.17;7.33;;;;;8.76;46.69;102602.16;2044515;28;2735739;-76
2023/03/28 01:00:59;;;;;;;;;6.67;6.33;;;;;8.75;46.79;102603.03;2045330;28;2745057;-76
2023/03/28 01:02:12;;;;;;;;;6.00;5.00;;;;;8.74;46.95;102601.25;2045052;28;2745093;-75
2023/03/28 01:03:29;;;;;;;;;6.33;6.00;;;;;8.74;47.33;102596.00;2044657;28;2726310;-76
2023/03/28 01:04:51;;;;;;;;;7.00;7.00;;;;;8.73;47.66;102591.66;2045805;28;2734656;-76
2023/03/28 01:06:05;;;;;;;;;7.00;7.00;;;;;8.71;47.73;102596.03;2044971;28;2746095;-76
2023/03/28 01:07:18;;;;;;;;;6.33;5.50;;;;;8.71;47.38;102597.75;2044918;28;2747163;-76
2023/03/28 01:08:37;;;;;;;;;7.83;6.00;;;;;8.70;47.59;102593.38;2045590;28;2740953;-76
2023/03/28 01:09:50;;;;;;;;;6.33;5.00;;;;;8.69;47.82;102592.53;2045732;28;2733615;-76
2023/03/28 01:11:02;;;;;;;;;7.00;7.00;;;;;8.69;46.97;102586.41;2017636;28;3451290;-76
2023/03/28 01:12:16;;;;;;;;;8.17;7.00;;;;;8.68;47.49;102588.13;2045461;28;2735669;-76
2023/03/28 01:13:33;;;;;;;;;9.17;7.00;;;;;8.67;47.31;102586.38;2046023;28;2734648;-76
2023/03/28 01:14:47;;;;;;;;;8.00;5.83;;;;;8.65;47.27;102591.63;2045078;28;2746097;-76
2023/03/28 01:16:02;;;;;;;;;6.67;6.50;;;;;8.65;47.61;102590.72;2021378;28;2738812;-76
2023/03/28 01:17:15;;;;;;;;;6.00;6.00;;;;;8.64;47.63;102589.84;2044887;28;2737750;-76
2023/03/28 01:18:33;;;;;;;;;5.33;5.33;;;;;8.63;47.20;102598.59;2045043;28;2752338;-76
2023/03/28 01:20:03;;;;;;;;;4.67;4.67;;;;;8.62;47.67;102590.72;2016588;28;2740968;-76
2023/03/28 01:21:25;;;;;;;;;6.33;4.17;;;;;8.61;47.38;102594.22;2044117;28;2746098;-76
2023/03/28 01:23:22;;;;;;;;;6.33;5.00;;;;;8.60;47.48;102589.81;2045314;28;2746086;-76
2023/03/28 01:24:54;;;;;;;;;7.50;4.50;;;;;8.58;47.57;102595.06;2045712;28;2738168;-76
2023/03/28 01:26:32;;;;;;;;;9.67;7.00;;;;;8.57;47.36;102602.91;2044299;28;2738802;-76
2023/03/28 01:28:27;;;;;;;;;7.17;6.00;;;;;8.55;47.65;102597.63;2028291;28;2733590;-76
2023/03/28 01:30:01;;;;;;;;;6.83;6.67;;;;;8.53;47.83;102600.25;2044412;28;2740914;-76
2023/03/28 01:31:14;;;;;;;;;4.83;4.83;;;;;8.51;47.75;102591.53;2045746;28;2729441;-76
2023/03/28 01:32:52;;;;;;;;;6.83;5.83;;;;;8.50;47.87;102587.13;2043800;28;2752348;-76
2023/03/28 01:34:19;;;;;;;;;6.17;6.17;;;;;8.49;47.75;102587.13;2044998;28;2739860;-76
2023/03/28 01:35:54;;;;;;;;;4.50;4.17;;;;;8.49;47.73;102584.50;2045163;28;2739857;-76
2023/03/28 01:37:30;;;;;;;;;6.67;6.17;;;;;8.46;47.79;102580.13;2044462;28;2746082;-76
2023/03/28 01:38:43;;;;;;;;;6.00;6.00;;;;;8.47;48.32;102581.00;2045347;28;2737750;-76
2023/03/28 01:40:47;;;;;;;;;6.00;5.50;;;;;8.46;48.25;102581.88;2044430;28;2737769;-76
2023/03/28 01:42:18;;;;;;;;;6.00;6.00;;;;;8.46;48.35;102576.63;2044448;28;2736743;-76
2023/03/28 01:43:45;;;;;;;;;6.83;6.00;;;;;8.42;48.13;102570.50;2045244;28;2727404;-76
2023/03/28 01:45:24;;;;;;;;;6.83;5.67;;;;;8.42;47.83;102570.50;2044720;28;2737820;-76
2023/03/28 01:46:42;;;;;;;;;7.33;6.17;;;;;8.42;48.38;102570.50;2044007;28;2734640;-76
2023/03/28 01:48:31;;;;;;;;;6.33;5.67;;;;;8.41;47.97;102571.34;2017643;28;3465854;-76
2023/03/28 01:49:56;;;;;;;;;6.17;5.67;;;;;8.40;47.79;102567.84;2026481;28;2740922;-76
2023/03/28 01:51:32;;;;;;;;;7.00;5.00;;;;;8.40;48.63;102561.72;2040902;28;2746120;-76
2023/03/28 01:52:54;;;;;;;;;5.33;5.00;;;;;8.40;48.32;102562.63;2018288;28;2745071;-75
2023/03/28 01:54:37;;;;;;;;;7.83;6.17;;;;;8.40;48.21;102565.22;2057574;27;2742997;-76
2023/03/28 01:56:02;;;;;;;;;6.67;6.67;;;;;8.42;48.43;102554.78;2038668;28;2737773;-76
2023/03/28 01:57:31;;;;;;;;;6.00;6.00;;;;;8.40;48.21;102554.75;2039352;28;2746091;-76
2023/03/28 01:58:47;;;;;;;;;9.17;6.67;;;;;8.42;48.29;102555.63;2036296;28;2735702;-76
2023/03/28 02:00:18;;;;;;;;;6.33;6.00;;;;;8.43;47.80;102549.53;2042713;28;2735710;-76
2023/03/28 02:02:03;;;;;;;;;5.67;5.67;;;;;8.43;48.34;102544.31;2047897;28;2746106;-76
2023/03/28 02:03:28;;;;;;;;;9.83;7.00;;;;;8.44;48.22;102548.66;2036620;28;2759616;-76
2023/03/28 02:04:44;;;;;;;;;5.83;5.83;;;;;8.45;48.12;102541.69;2044454;28;2730859;-76
2023/03/28 02:05:59;;;;;;;;;5.00;5.00;;;;;8.47;48.24;102541.69;2044782;28;2745046;-76
2023/03/28 02:07:17;;;;;;;;;9.50;6.00;;;;;8.46;48.13;102537.31;2036220;28;2752384;-76
2023/03/28 02:08:35;;;;;;;;;8.00;7.00;;;;;8.46;48.19;102535.56;2043364;28;2738803;-76
2023/03/28 02:09:51;;;;;;;;;8.50;6.17;;;;;8.48;48.41;102531.22;2044955;28;2739876;-76
2023/03/28 02:11:05;;;;;;;;;3.83;2.83;;;;;8.48;48.48;102535.56;2043981;28;2745047;-76
2023/03/28 02:12:28;;;;;;;;;7.17;6.33;;;;;8.47;48.59;102532.06;2020954;28;2736715;-75
2023/03/28 02:13:46;;;;;;;;;9.00;5.00;;;;;8.47;48.29;102526.81;2017457;28;2747251;-76
2023/03/28 02:15:05;;;;;;;;;10.67;5.83;;;;;8.47;48.47;102523.34;2058300;27;2762760;-76
2023/03/28 02:16:21;;;;;;;;;8.33;7.33;;;;;8.46;48.56;102522.47;2025194;28;2744052;-75
2023/03/28 02:17:42;;;;;;;;;8.33;6.67;;;;;8.47;48.63;102513.72;2036345;28;2739853;-76
2023/03/28 02:18:57;;;;;;;;;4.17;4.00;;;;;8.46;48.54;102511.09;2036161;28;2745049;-76
2023/03/28 02:20:15;;;;;;;;;6.83;6.33;;;;;8.45;48.10;102510.22;2036553;28;2745069;-75
2023/03/28 02:21:38;;;;;;;;;6.50;6.00;;;;;8.45;48.19;102518.09;2043392;28;2734632;-75
2023/03/28 02:23:06;;;;;;;;;8.67;7.00;;;;;8.42;48.28;102508.47;2045062;28;2737790;-75
2023/03/28 02:24:20;;;;;;;;;7.50;7.33;;;;;8.40;48.36;102504.97;2036568;28;2737785;-76
2023/03/28 02:25:31;;;;;;;;;12.00;8.00;;;;;8.40;47.88;102501.47;2014969;28;2769153;-76
2023/03/28 02:26:44;;;;;;;;;7.67;4.83;;;;;8.38;47.78;102508.44;2043909;28;2743484;-75
2023/03/28 02:28:02;;;;;;;;;6.33;5.00;;;;;8.36;47.89;102516.31;2043152;28;2745100;-75
2023/03/28 02:29:17;;;;;;;;;4.33;4.00;;;;;8.35;47.98;102513.66;2044507;28;2752344;-75
2023/03/28 02:30:30;;;;;;;;;6.33;4.50;;;;;8.32;48.14;102510.16;2043906;28;2745084;-76
2023/03/28 02:31:45;;;;;;;;;4.33;4.33;;;;;8.30;47.78;102506.66;2044239;28;2734648;-75
2023/03/28 02:33:03;;;;;;;;;7.50;5.83;;;;;8.29;47.96;102512.78;2021458;28;2746079;-75
2023/03/28 02:34:16;;;;;;;;;5.50;5.17;;;;;8.29;47.67;102506.66;2043703;28;2743480;-75
2023/03/28 02:35:49;;;;;;;;;6.67;6.17;;;;;8.27;47.98;102503.16;2044686;28;2735686;-75
2023/03/28 02:37:12;;;;;;;;;5.83;5.33;;;;;8.25;48.17;102505.75;2043798;28;2746141;-75
2023/03/28 02:38:42;;;;;;;;;4.67;4.67;;;;;8.24;47.93;102506.66;2044457;28;2740921;-75
2023/03/28 02:40:20;;;;;;;;;6.50;5.67;;;;;8.22;48.15;102504.00;2044253;28;2737766;-75
2023/03/28 02:42:05;;;;;;;;;4.67;4.17;;;;;8.20;48.11;102505.75;2036686;28;2738814;-75
2023/03/28 02:43:34;;;;;;;;;6.50;5.50;;;;;8.19;47.74;102503.13;2037186;28;2740878;-76
2023/03/28 02:45:18;;;;;;;;;6.83;5.00;;;;;8.16;48.25;102501.34;2044835;28;2739257;-75
2023/03/28 02:46:38;;;;;;;;;6.00;5.00;;;;;8.15;48.48;102502.22;2043742;28;2738830;-75
2023/03/28 02:48:29;;;;;;;;;5.00;5.00;;;;;8.14;48.06;102500.47;2043459;28;2746617;-75
2023/03/28 02:49:46;;;;;;;;;5.50;5.00;;;;;8.11;48.29;102497.84;2043759;28;2749259;-76
2023/03/28 02:51:48;;;;;;;;;8.17;6.00;;;;;8.10;48.50;102496.06;2021677;28;2732560;-75
2023/03/28 02:53:26;;;;;;;;;4.50;4.50;;;;;8.08;48.07;102496.06;2030691;28;2740895;-76
2023/03/28 02:54:51;;;;;;;;;6.83;5.50;;;;;8.07;48.17;102493.44;2044017;28;2744012;-75
2023/03/28 02:56:20;;;;;;;;;4.67;4.67;;;;;8.04;47.98;102485.56;2044529;28;2740875;-75
2023/03/28 02:57:43;;;;;;;;;6.33;3.83;;;;;8.03;48.23;102489.94;2044015;28;2752419;-75
2023/03/28 02:59:03;;;;;;;;;8.00;5.33;;;;;8.01;48.22;102481.19;2044237;28;2734083;-76
2023/03/28 03:00:18;;;;;;;;;4.67;4.67;;;;;8.01;48.26;102488.16;2043833;28;2742973;-76
2023/03/28 03:01:35;;;;;;;;;5.17;5.17;;;;;7.99;48.59;102485.53;2044283;28;2741936;-75
2023/03/28 03:02:49;;;;;;;;;4.00;4.00;;;;;7.98;48.62;102489.00;2020800;28;2742961;-76
2023/03/28 03:04:02;;;;;;;;;5.83;4.67;;;;;7.96;48.21;102483.78;2050939;28;2746098;-75
2023/03/28 03:05:19;;;;;;;;;6.00;5.67;;;;;7.96;48.66;102482.91;2037926;28;2730498;-76
2023/03/28 03:06:34;;;;;;;;;7.67;7.67;;;;;7.94;48.40;102484.63;2042323;28;2742011;-76
2023/03/28 03:07:49;;;;;;;;;9.67;6.67;;;;;7.93;48.59;102481.13;2043467;28;2759647;-76
2023/03/28 03:09:03;;;;;;;;;5.50;5.50;;;;;7.93;48.90;102477.63;2043715;28;2747172;-76
2023/03/28 03:10:17;;;;;;;;;5.67;5.33;;;;;7.92;48.42;102483.75;2043112;28;2748190;-76
2023/03/28 03:11:28;;;;;;;;;7.00;6.00;;;;;7.91;48.38;102482.00;2017270;28;2737854;-76
2023/03/28 03:12:39;;;;;;;;;5.00;5.00;;;;;7.90;48.64;102480.25;2042421;28;2746125;-76
2023/03/28 03:13:53;;;;;;;;;6.00;6.00;;;;;7.88;48.73;102478.50;2044767;28;2735690;-75
2023/03/28 03:15:07;;;;;;;;;3.67;2.50;;;;;7.88;48.47;102478.50;2044907;28;2733611;-76
2023/03/28 03:16:20;;;;;;;;;7.17;6.50;;;;;7.88;49.13;102481.09;2044371;28;2735681;-75
2023/03/28 03:17:33;;;;;;;;;6.17;4.50;;;;;7.87;49.04;102476.75;2041840;28;2745081;-76
2023/03/28 03:18:46;;;;;;;;;7.50;6.00;;;;;7.88;48.46;102468.03;2044440;28;2734648;-76
2023/03/28 03:20:05;;;;;;;;;6.17;4.67;;;;;7.90;48.74;102480.25;2042966;28;2746107;-76
2023/03/28 03:21:20;;;;;;;;;7.50;5.67;;;;;7.90;49.11;102477.63;2044223;28;2747120;-76
2023/03/28 03:22:34;;;;;;;;;5.67;4.33;;;;;7.91;48.42;102476.75;2044249;28;2749251;-75
2023/03/28 03:23:47;;;;;;;;;6.00;5.50;;;;;7.91;48.65;102479.38;2044262;28;2740927;-75
2023/03/28 03:25:06;;;;;;;;;3.50;2.00;;;;;7.92;48.49;102473.28;2043624;28;2733610;-75
2023/03/28 03:26:21;;;;;;;;;4.83;4.83;;;;;7.94;49.39;102466.31;2044362;28;2746086;-76
2023/03/28 03:27:35;;;;;;;;;5.83;5.50;;;;;7.95;49.46;102474.16;2043701;28;2734648;-75
2023/03/28 03:28:49;;;;;;;;;6.00;5.83;;;;;7.96;49.22;102475.03;2045094;28;2735255;-76
2023/03/28 03:30:04;;;;;;;;;6.50;5.50;;;;;7.97;49.51;102467.22;2044482;28;2741948;-76
2023/03/28 03:31:18;;;;;;;;;7.17;6.00;;;;;7.99;49.42;102459.34;2043847;28;2746079;-76
2023/03/28 03:32:32;;;;;;;;;6.00;6.00;;;;;7.99;49.76;102455.00;2044490;28;2742986;-76
2023/03/28 03:33:45;;;;;;;;;7.50;5.50;;;;;8.02;49.38;102448.91;2043736;28;2745084;-75
2023/03/28 03:34:58;;;;;;;;;2.83;2.83;;;;;8.02;49.00;102438.44;2044127;28;2741936;-75
2023/03/28 03:36:12;;;;;;;;;7.50;6.17;;;;;8.04;48.89;102441.94;2020133;28;2733607;-75
2023/03/28 03:37:25;;;;;;;;;6.83;5.67;;;;;8.06;49.14;102437.56;2043163;28;2744015;-75
2023/03/28 03:38:39;;;;;;;;;6.50;5.50;;;;;8.08;48.87;102438.44;2044760;28;2737769;-75
2023/03/28 03:39:52;;;;;;;;;6.33;6.17;;;;;8.09;48.89;102440.22;2044618;28;2734672;-75
2023/03/28 03:41:05;;;;;;;;;6.00;6.00;;;;;8.12;48.53;102441.09;2042864;28;2742965;-76
2023/03/28 03:42:18;;;;;;;;;4.83;4.83;;;;;8.12;48.95;102434.13;2043023;28;2738877;-75
2023/03/28 03:43:33;;;;;;;;;5.33;4.50;;;;;8.13;49.10;102438.47;2047556;28;2746110;-76
2023/03/28 03:44:46;;;;;;;;;9.00;8.00;;;;;8.15;48.82;102441.13;2059477;27;2759640;-75
2023/03/28 03:46:00;;;;;;;;;6.67;6.67;;;;;8.16;49.02;102438.50;2059541;27;2732621;-75
2023/03/28 03:47:13;;;;;;;;;10.33;6.50;;;;;8.18;48.47;102439.38;2037994;28;2742989;-75
2023/03/28 03:48:27;;;;;;;;;10.17;6.00;;;;;8.19;49.24;102435.91;2053129;27;2761753;-76
2023/03/28 03:49:40;;;;;;;;;8.33;6.33;;;;;8.20;49.20;102436.75;2052810;28;2739868;-75
2023/03/28 03:50:53;;;;;;;;;5.00;4.50;;;;;8.22;48.79;102435.03;2045602;28;2746118;-76
2023/03/28 03:52:06;;;;;;;;;6.17;5.50;;;;;8.23;49.25;102434.16;2054016;27;2739844;-76
2023/03/28 03:53:20;;;;;;;;;8.00;6.50;;;;;8.25;48.52;102427.16;2056654;27;2735681;-75
2023/03/28 03:54:33;;;;;;;;;8.33;7.00;;;;;8.26;48.80;102434.16;2046753;28;2748695;-75
2023/03/28 03:55:46;;;;;;;;;4.67;4.67;;;;;8.26;48.96;102426.31;2047207;28;2748178;-75
2023/03/28 03:57:01;;;;;;;;;6.67;6.67;;;;;8.27;48.91;102433.28;2045903;28;2746550;-75
2023/03/28 03:58:14;;;;;;;;;7.33;6.50;;;;;8.29;48.82;102436.81;2046548;28;2737805;-76
2023/03/28 03:59:27;;;;;;;;;10.67;8.00;;;;;8.29;48.79;102430.69;2052817;28;2762780;-75
2023/03/28 04:00:43;;;;;;;;;9.00;6.17;;;;;8.29;48.82;102431.56;2028794;28;2754435;-75
2023/03/28 04:01:56;;;;;;;;;7.00;5.83;;;;;8.29;48.77;102428.94;2045484;28;2735691;-76
2023/03/28 04:03:10;;;;;;;;;9.50;7.00;;;;;8.30;48.92;102432.41;2061169;27;2757551;-76
2023/03/28 04:04:23;;;;;;;;;9.17;5.83;;;;;8.30;48.44;102437.66;2058795;27;2746135;-76
2023/03/28 04:05:36;;;;;;;;;7.00;7.00;;;;;8.29;48.75;102428.06;2046554;28;2744038;-75
2023/03/28 04:06:46;;;;;;;;;11.00;8.00;;;;;8.29;48.56;102426.34;2019569;28;2766938;-76
2023/03/28 04:07:59;;;;;;;;;7.00;7.00;;;;;8.28;48.34;102426.31;2038080;28;2741932;-75
2023/03/28 04:09:12;;;;;;;;;10.67;6.83;;;;;8.28;48.81;102423.69;2045795;28;2749246;-75
2023/03/28 04:10:25;;;;;;;;;7.83;7.83;;;;;8.27;48.45;102421.97;2023553;28;2733606;-75
2023/03/28 04:11:36;;;;;;;;;6.00;5.00;;;;;8.25;48.68;102424.53;2019499;28;2741061;-76
2023/03/28 04:12:47;;;;;;;;;9.00;7.33;;;;;8.25;48.23;102423.69;2045552;28;2737754;-75
2023/03/28 04:14:00;;;;;;;;;8.50;5.50;;;;;8.24;48.75;102419.31;2045488;28;2749578;-76
2023/03/28 04:15:14;;;;;;;;;7.50;7.50;;;;;8.22;48.44;102427.19;2046804;28;2728423;-75
2023/03/28 04:16:28;;;;;;;;;5.67;5.67;;;;;8.20;48.64;102427.16;2045463;28;2752355;-75
2023/03/28 04:17:43;;;;;;;;;8.17;7.00;;;;;8.19;48.94;102432.41;2046575;28;2744031;-76
2023/03/28 04:18:56;;;;;;;;;8.17;8.00;;;;;8.17;48.88;102426.28;2047041;28;2728414;-76
2023/03/28 04:20:13;;;;;;;;;7.50;7.50;;;;;8.16;48.37;102425.41;2045829;28;2744007;-75
2023/03/28 04:21:29;;;;;;;;;7.33;7.33;;;;;8.14;48.77;102432.38;2046287;28;2739853;-76
2023/03/28 04:22:40;;;;;;;;;11.67;5.67;;;;;8.14;48.65;102431.50;2018369;28;3475252;-75
2023/03/28 04:23:52;;;;;;;;;8.50;7.50;;;;;8.12;49.04;102425.38;2061965;27;2739875;-75
2023/03/28 04:25:07;;;;;;;;;7.50;6.50;;;;;8.10;48.50;102428.84;2052791;27;2729424;-76
2023/03/28 04:26:24;;;;;;;;;8.83;7.33;;;;;8.09;49.01;102432.34;2042105;28;2744015;-76
2023/03/28 04:27:35;;;;;;;;;14.33;9.00;;;;;8.07;48.85;102426.25;1995039;28;3506530;-75
2023/03/28 04:28:46;;;;;;;;;13.33;10.00;;;;;8.06;48.87;102429.72;2032562;28;2777398;-76
2023/03/28 04:30:00;;;;;;;;;10.83;8.67;;;;;8.06;48.68;102427.09;2046081;28;2758589;-75
2023/03/28 04:31:11;;;;;;;;;11.00;10.00;;;;;8.04;49.36;102433.19;1994572;28;2780863;-75
2023/03/28 04:32:23;;;;;;;;;10.33;8.33;;;;;8.02;48.59;102425.34;2051507;28;1825419;-75
2023/03/28 04:33:33;;;;;;;;;12.00;6.67;;;;;8.01;48.94;102426.19;2004790;28;2756556;-75
2023/03/28 04:34:45;;;;;;;;;10.67;9.67;;;;;8.01;49.16;102423.56;2040211;27;3505431;-75
2023/03/28 04:36:00;;;;;;;;;9.33;7.33;;;;;7.99;48.99;102417.47;2016115;28;2740895;-75
2023/03/28 04:37:14;;;;;;;;;11.00;9.00;;;;;7.98;49.07;102423.56;2045561;28;2748197;-75
2023/03/28 04:38:31;;;;;;;;;7.67;6.00;;;;;7.96;49.41;102423.56;2030411;28;2739837;-75
2023/03/28 04:39:43;;;;;;;;;10.67;8.00;;;;;7.96;49.09;102414.81;2025974;28;2758610;-75
2023/03/28 04:40:58;;;;;;;;;7.67;7.67;;;;;7.95;49.33;102419.16;2045796;28;2736727;-75
2023/03/28 04:42:12;;;;;;;;;6.00;6.00;;;;;7.94;49.24;102416.56;2046272;28;2732541;-75
2023/03/28 04:43:29;;;;;;;;;7.17;6.50;;;;;7.92;49.28;102420.91;2047005;28;2730517;-76
2023/03/28 04:44:43;;;;;;;;;4.00;4.00;;;;;7.91;49.14;102413.91;2046935;28;2733603;-75
2023/03/28 04:45:57;;;;;;;;;5.00;5.00;;;;;7.88;48.87;102414.78;2053531;28;2749212;-75
2023/03/28 04:47:10;;;;;;;;;9.67;8.00;;;;;7.87;49.39;102419.16;2019785;28;2761719;-75
2023/03/28 04:48:21;;;;;;;;;7.67;6.00;;;;;7.86;48.68;102425.25;2019094;28;2747227;-75
2023/03/28 04:49:35;;;;;;;;;6.50;6.50;;;;;7.84;49.70;102418.25;2046849;28;2741959;-76
2023/03/28 04:50:49;;;;;;;;;7.33;6.50;;;;;7.82;49.10;102423.50;2046459;28;2741959;-76
2023/03/28 04:52:02;;;;;;;;;6.67;6.00;;;;;7.82;49.12;102420.00;2045422;28;2744435;-76
2023/03/28 04:53:13;;;;;;;;;9.00;6.33;;;;;7.80;49.40;102433.06;2019953;28;2738820;-75
2023/03/28 04:54:26;;;;;;;;;7.50;6.83;;;;;7.79;49.55;102427.81;2045079;28;2736708;-75
2023/03/28 04:55:39;;;;;;;;;7.33;7.33;;;;;7.78;49.31;102431.31;2043710;28;2741936;-76
2023/03/28 04:56:53;;;;;;;;;9.50;4.67;;;;;7.77;49.23;102433.06;2043809;28;2748544;-75
2023/03/28 04:58:06;;;;;;;;;8.17;6.17;;;;;7.75;49.34;102430.41;2020674;28;2735713;-75
2023/03/28 04:59:17;;;;;;;;;9.00;8.67;;;;;7.74;49.43;102433.03;2017271;28;2746164;-75
2023/03/28 05:00:29;;;;;;;;;7.80;6.80;;;;;7.72;49.16;102435.66;2043494;28;2738830;-75
2023/03/28 05:01:47;;;;;;;;;8.00;7.00;;;;;7.72;49.06;102434.75;2044580;28;2746133;-75
2023/03/28 05:03:05;;;;;;;;;8.00;7.00;;;;;7.71;49.99;102438.22;2044648;28;2746109;-76
2023/03/28 05:04:20;;;;;;;;;10.00;6.00;;;;;7.71;50.06;102433.00;2045074;28;2746083;-76
2023/03/28 05:05:33;;;;;;;;;5.00;5.00;;;;;7.70;49.74;102431.25;2043200;28;2750294;-75
2023/03/28 05:06:48;;;;;;;;;8.50;7.50;;;;;7.70;50.20;102428.66;2045528;28;2733607;-75
2023/03/28 05:08:02;;;;;;;;;7.83;6.50;;;;;7.70;49.87;102428.66;2043789;28;2742988;-75
2023/03/28 05:09:13;;;;;;;;;6.33;6.00;;;;;7.69;50.16;102432.13;2026914;27;2735034;-75
2023/03/28 05:10:26;;;;;;;;;8.00;8.00;;;;;7.68;49.83;102423.38;2058748;27;2744034;-75
2023/03/28 05:11:38;;;;;;;;;10.67;6.33;;;;;7.69;49.73;102437.34;2017998;28;3467246;-75
2023/03/28 05:12:51;;;;;;;;;9.00;7.83;;;;;7.68;49.89;102440.84;2045345;28;2733622;-75
2023/03/28 05:14:04;;;;;;;;;9.67;7.00;;;;;7.68;49.81;102439.09;2044832;28;2746130;-75
2023/03/28 05:15:18;;;;;;;;;6.33;6.17;;;;;7.69;49.69;102437.34;2044943;28;2744011;-75
2023/03/28 05:16:31;;;;;;;;;8.00;7.17;;;;;7.68;49.92;102438.22;2044783;28;2735666;-75
2023/03/28 05:17:44;;;;;;;;;6.50;5.67;;;;;7.69;49.94;102450.44;2044844;28;2740917;-75
2023/03/28 05:18:58;;;;;;;;;6.17;6.00;;;;;7.69;49.88;102443.47;2039697;28;2733606;-75
2023/03/28 05:20:11;;;;;;;;;7.50;7.00;;;;;7.68;50.18;102443.47;2038321;28;2734635;-75
2023/03/28 05:21:24;;;;;;;;;6.50;6.50;;;;;7.69;50.00;102439.97;2053313;27;2732565;-76
2023/03/28 05:22:37;;;;;;;;;6.83;6.83;;;;;7.69;50.10;102446.09;2046486;27;2746476;-75
2023/03/28 05:23:48;;;;;;;;;10.00;8.00;;;;;7.70;50.39;102442.63;2017682;28;2766949;-75
2023/03/28 05:25:00;;;;;;;;;9.00;6.00;;;;;7.71;50.05;102443.47;2044017;28;2746087;-76
2023/03/28 05:26:13;;;;;;;;;5.67;5.67;;;;;7.72;50.33;102442.63;2044541;28;2732578;-75
2023/03/28 05:27:26;;;;;;;;;7.50;5.83;;;;;7.72;50.63;102450.47;2044190;28;2739856;-75
2023/03/28 05:28:39;;;;;;;;;9.50;6.50;;;;;7.72;50.52;102446.13;2042696;28;2751310;-75
2023/03/28 05:29:50;;;;;;;;;9.67;7.67;;;;;7.73;50.16;102447.84;2030540;28;1831508;-75
2023/03/28 05:31:02;;;;;;;;;9.50;7.00;;;;;7.74;50.02;102451.34;2020771;28;2757560;-75
2023/03/28 05:32:15;;;;;;;;;7.00;7.00;;;;;7.74;50.71;102446.13;2044835;28;2741967;-75
2023/03/28 05:33:31;;;;;;;;;9.33;7.33;;;;;7.77;50.53;102448.75;2044517;28;2753426;-75
2023/03/28 05:34:44;;;;;;;;;9.67;9.50;;;;;7.76;50.39;102442.63;2044533;28;2754432;-75
2023/03/28 05:35:59;;;;;;;;;8.17;7.00;;;;;7.77;50.11;102433.06;2021291;28;2734645;-75
2023/03/28 05:37:12;;;;;;;;;7.17;7.17;;;;;7.78;50.20;102434.78;2045307;28;2735682;-75
2023/03/28 05:38:22;;;;;;;;;11.00;8.00;;;;;7.80;50.39;102432.19;2017817;28;2762940;-75
2023/03/28 05:39:33;;;;;;;;;7.33;7.33;;;;;7.81;50.68;102428.69;2050201;27;2744023;-75
2023/03/28 05:40:44;;;;;;;;;8.00;8.00;;;;;7.81;50.66;102437.44;2033987;27;2738893;-75
2023/03/28 05:41:55;;;;;;;;;10.67;7.33;;;;;7.82;50.45;102444.44;2049785;27;2752348;-75
2023/03/28 05:43:08;;;;;;;;;9.00;9.00;;;;;7.83;50.58;102440.94;2034627;28;2748178;-75
2023/03/28 05:44:19;;;;;;;;;10.00;9.67;;;;;7.85;50.22;102440.97;2002341;28;3497674;-75
2023/03/28 05:45:30;;;;;;;;;13.33;10.00;;;;;7.86;50.55;102440.06;2031242;28;3510670;-75
2023/03/28 05:46:40;;;;;;;;;12.00;10.00;;;;;7.86;50.73;102438.34;2027780;28;2781530;-75
2023/03/28 05:47:54;;;;;;;;;16.00;14.00;;;;;7.88;50.56;102441.84;2034833;28;2809634;-75
2023/03/28 05:49:05;;;;;;;;;15.00;12.50;;;;;7.90;50.20;102448.84;2016692;28;2796048;-75
2023/03/28 05:50:16;;;;;;;;;9.33;9.33;;;;;7.90;50.59;102446.22;2022793;27;2763879;-75
2023/03/28 05:51:27;;;;;;;;;12.00;11.00;;;;;7.91;50.97;102446.22;2037105;28;1841974;-75
2023/03/28 05:52:38;;;;;;;;;15.33;9.00;;;;;7.92;50.49;102444.47;2025503;28;1850230;-75
2023/03/28 05:53:50;;;;;;;;;11.50;11.50;;;;;7.92;50.34;102441.88;2030392;27;1846205;-75
2023/03/28 05:55:01;;;;;;;;;20.00;17.00;;;;;7.94;50.21;102447.97;2021694;28;2827435;-75